createdAt,value
2022-12-22T00:03:08.139Z,98674.58
2022-12-22T00:06:35.590Z,98679.81
2022-12-22T00:10:02.168Z,98670.84
2022-12-22T00:13:33.678Z,98656.81
2022-12-22T00:17:01.428Z,98660.38
2022-12-22T00:20:36.470Z,98668.13
2022-12-22T00:24:03.211Z,98661.88
2022-12-22T00:27:39.111Z,98658.15
2022-12-22T00:31:05.988Z,98648.42
2022-12-22T00:34:37.163Z,98641.48
2022-12-22T00:38:03.938Z,98629.34
2022-12-22T00:41:30.943Z,98640.57
2022-12-22T00:44:57.854Z,98633.47
2022-12-22T00:48:26.810Z,98633.27
2022-12-22T00:51:54.890Z,98628.03
2022-12-22T00:55:22.180Z,98639.25
2022-12-22T00:58:49.549Z,98635.61
2022-12-22T01:02:16.565Z,98631.02
2022-12-22T01:05:44.052Z,98621.30
2022-12-22T01:09:11.168Z,98615.11
2022-12-22T01:12:41.919Z,98614.09
2022-12-22T01:16:08.853Z,98620.18
2022-12-22T01:19:35.746Z,98616.44
2022-12-22T01:23:02.915Z,98618.10
2022-12-22T01:26:30.936Z,98617.08
2022-12-22T01:29:57.520Z,98613.44
2022-12-22T01:33:24.186Z,98608.30
2022-12-22T01:36:51.125Z,98615.95
2022-12-22T01:40:18.002Z,98611.47
2022-12-22T01:43:47.926Z,98608.74
2022-12-22T01:47:35.007Z,98607.72
2022-12-22T01:51:01.853Z,98608.56
2022-12-22T01:54:29.874Z,98606.80
2022-12-22T01:57:57.232Z,98611.09
2022-12-22T02:01:24.583Z,98613.60
2022-12-22T02:04:55.562Z,98613.60
2022-12-22T02:08:32.642Z,98616.12
2022-12-22T02:12:06.351Z,98618.67
2022-12-22T02:15:41.769Z,98623.91
2022-12-22T02:19:13.492Z,98629.97
2022-12-22T02:22:47.008Z,98633.44
2022-12-22T02:26:19.533Z,98631.56
2022-12-22T02:29:51.199Z,98624.55
2022-12-22T02:33:18.272Z,98627.06
2022-12-22T02:36:50.846Z,98627.81
2022-12-22T02:40:23.730Z,98632.14
2022-12-22T02:44:04.189Z,98632.88
2022-12-22T02:47:37.240Z,98637.38
2022-12-22T02:51:08.448Z,98626.05
2022-12-22T02:54:36.868Z,98621.66
2022-12-22T02:58:03.722Z,98621.73
2022-12-22T03:01:31.365Z,98627.06
2022-12-22T03:04:58.641Z,98629.15
2022-12-22T03:08:25.794Z,98624.28
2022-12-22T03:11:52.385Z,98613.34
2022-12-22T03:15:19.033Z,98624.77
2022-12-22T03:18:45.728Z,98624.94
2022-12-22T03:22:12.879Z,98630.01
2022-12-22T03:25:40.139Z,98621.09
2022-12-22T03:28:52.671Z,98626.16
2022-12-22T03:32:05.015Z,98620.82
2022-12-22T03:35:17.605Z,98630.38
2022-12-22T03:38:30.743Z,98627.66
2022-12-22T03:41:57.774Z,98627.45
2022-12-22T03:45:28.186Z,98635.03
2022-12-22T03:48:40.376Z,98626.32
2022-12-22T03:51:54.451Z,98619.31
2022-12-22T03:55:07.965Z,98618.36
2022-12-22T03:58:20.375Z,98619.31
2022-12-22T04:01:33.270Z,98624.34
2022-12-22T04:04:45.763Z,98615.67
2022-12-22T04:07:58.180Z,98611.98
2022-12-22T04:11:24.973Z,98617.91
2022-12-22T04:14:37.200Z,98617.70
2022-12-22T04:17:49.436Z,98612.35
2022-12-22T04:21:01.808Z,98609.55
2022-12-22T04:24:15.470Z,98604.95
2022-12-22T04:27:27.888Z,98599.71
2022-12-22T04:30:40.209Z,98590.92
2022-12-22T04:33:52.765Z,98587.17
2022-12-22T04:37:14.838Z,98583.70
2022-12-22T04:40:19.711Z,98590.72
2022-12-22T04:43:31.976Z,98589.80
2022-12-22T04:46:44.230Z,98588.84
2022-12-22T04:49:56.539Z,98583.59
2022-12-22T04:53:08.913Z,98576.47
2022-12-22T04:56:21.262Z,98569.35
2022-12-22T04:59:33.779Z,98563.37
2022-12-22T05:02:46.560Z,98568.61
2022-12-22T05:05:59.063Z,98566.84
2022-12-22T05:09:11.766Z,98562.41
2022-12-22T05:12:38.874Z,98563.27
2022-12-22T05:15:51.865Z,98558.23
2022-12-22T05:19:04.015Z,98557.38
2022-12-22T05:22:16.971Z,98561.59
2022-12-22T05:25:34.806Z,98551.00
2022-12-22T05:28:44.211Z,98558.66
2022-12-22T05:31:56.426Z,98558.87
2022-12-22T05:35:10.713Z,98556.35
2022-12-22T05:38:23.071Z,98561.48
2022-12-22T05:41:35.287Z,98563.37
2022-12-22T05:44:47.844Z,98551.92
2022-12-22T05:48:00.557Z,98547.64
2022-12-22T05:51:14.357Z,98540.63
2022-12-22T05:54:26.703Z,98534.53
2022-12-22T05:57:39.475Z,98532.84
2022-12-22T06:00:51.963Z,98527.59
2022-12-22T06:04:04.988Z,98535.56
2022-12-22T06:07:18.584Z,98542.50
2022-12-22T06:10:31.958Z,98541.94
2022-12-22T06:13:44.434Z,98537.02
2022-12-22T06:16:56.810Z,98545.80
2022-12-22T06:20:10.699Z,98546.66
2022-12-22T06:23:23.229Z,98558.27
2022-12-22T06:26:35.387Z,98561.08
2022-12-22T06:29:49.219Z,98560.25
2022-12-22T06:33:03.863Z,98563.69
2022-12-22T06:36:18.076Z,98568.86
2022-12-22T06:39:31.845Z,98567.80
2022-12-22T06:43:13.461Z,98552.08
2022-12-22T06:46:26.836Z,98558.16
2022-12-22T06:49:42.488Z,98566.59
2022-12-22T06:52:54.905Z,98568.08
2022-12-22T06:56:07.389Z,98574.34
2022-12-22T06:59:19.918Z,98561.14
2022-12-22T07:02:32.704Z,98547.92
2022-12-22T07:05:45.885Z,98542.50
2022-12-22T07:08:58.676Z,98539.99
2022-12-22T07:12:11.851Z,98553.09
2022-12-22T07:15:24.394Z,98549.63
2022-12-22T07:18:39.228Z,98547.92
2022-12-22T07:21:51.485Z,98544.38
2022-12-22T07:25:04.063Z,98542.40
2022-12-22T07:28:20.603Z,98544.80
2022-12-22T07:31:30.800Z,98549.13
2022-12-22T07:34:43.069Z,98550.72
2022-12-22T07:37:57.233Z,98543.59
2022-12-22T07:41:14.182Z,98534.77
2022-12-22T07:44:26.823Z,98513.61
2022-12-22T07:47:39.129Z,98515.91
2022-12-22T07:50:51.341Z,98512.07
2022-12-22T07:54:04.736Z,98508.38
2022-12-22T07:57:17.282Z,98498.55
2022-12-22T08:00:31.415Z,98509.67
2022-12-22T08:03:43.742Z,98504.83
2022-12-22T08:06:56.394Z,98505.68
2022-12-22T08:10:09.407Z,98501.06
2022-12-22T08:13:21.665Z,98494.02
2022-12-22T08:16:34.817Z,98495.48
2022-12-22T08:19:48.800Z,98493.12
2022-12-22T08:23:02.374Z,98497.73
2022-12-22T08:26:19.670Z,98502.15
2022-12-22T08:29:36.203Z,98488.92
2022-12-22T08:32:51.700Z,98489.34
2022-12-22T08:36:08.244Z,98497.12
2022-12-22T08:39:20.824Z,98498.98
2022-12-22T08:42:34.609Z,98495.84
2022-12-22T08:45:47.832Z,98487.20
2022-12-22T08:49:01.781Z,98487.80
2022-12-22T08:52:18.348Z,98486.02
2022-12-22T08:55:29.063Z,98479.37
2022-12-22T08:58:41.319Z,98470.11
2022-12-22T09:01:54.393Z,98458.92
2022-12-22T09:05:06.654Z,98446.75
2022-12-22T09:08:19.009Z,98437.91
2022-12-22T09:11:32.284Z,98441.27
2022-12-22T09:14:44.653Z,98433.25
2022-12-22T09:17:57.705Z,98435.56
2022-12-22T09:21:10.174Z,98442.52
2022-12-22T09:24:23.493Z,98424.20
2022-12-22T09:27:38.065Z,98422.14
2022-12-22T09:30:55.257Z,98419.02
2022-12-22T09:34:10.701Z,98421.41
2022-12-22T09:37:24.052Z,98415.70
2022-12-22T09:40:37.972Z,98401.27
2022-12-22T09:43:50.988Z,98392.66
2022-12-22T09:47:07.625Z,98377.80
2022-12-22T09:50:25.376Z,98367.09
2022-12-22T09:53:39.212Z,98360.88
2022-12-22T09:56:51.617Z,98356.52
2022-12-22T10:00:11.492Z,98348.16
2022-12-22T10:03:37.748Z,98344.08
2022-12-22T10:06:56.849Z,98346.48
2022-12-22T10:10:26.166Z,98348.03
2022-12-22T10:13:40.142Z,98341.10
2022-12-22T10:16:52.886Z,98331.55
2022-12-22T10:20:29.896Z,98328.19
2022-12-22T10:23:49.380Z,98330.34
2022-12-22T10:27:08.488Z,98321.47
2022-12-22T10:30:32.991Z,98319.34
2022-12-22T10:33:47.962Z,98302.84
2022-12-22T10:37:07.097Z,98304.86
2022-12-22T10:40:30.650Z,98302.45
2022-12-22T10:43:51.027Z,98301.50
2022-12-22T10:47:15.453Z,98304.02
2022-12-22T10:50:24.707Z,98291.84
2022-12-22T10:53:54.682Z,98287.86
2022-12-22T10:57:33.414Z,98285.61
2022-12-22T11:00:47.353Z,98275.31
2022-12-22T11:03:59.905Z,98280.58
2022-12-22T11:07:17.136Z,98266.48
2022-12-22T11:10:39.022Z,98269.58
2022-12-22T11:14:18.669Z,98261.94
2022-12-22T11:17:38.246Z,98257.14
2022-12-22T11:21:04.329Z,98259.42
2022-12-22T11:24:28.961Z,98255.33
2022-12-22T11:27:48.305Z,98258.10
2022-12-22T11:31:12.098Z,98257.48
2022-12-22T11:34:39.188Z,98246.38
2022-12-22T11:37:56.437Z,98240.31
2022-12-22T11:41:11.169Z,98240.63
2022-12-22T11:44:44.055Z,98236.00
2022-12-22T11:48:03.011Z,98238.98
2022-12-22T11:51:27.299Z,98235.21
2022-12-22T11:55:08.941Z,98228.22
2022-12-22T11:58:43.618Z,98216.39
2022-12-22T12:02:20.735Z,98219.72
2022-12-22T12:06:09.382Z,98221.55
2022-12-22T12:09:28.977Z,98215.67
2022-12-22T12:12:50.005Z,98215.06
2022-12-22T12:16:07.770Z,98218.97
2022-12-22T12:20:12.643Z,98216.03
2022-12-22T12:23:48.026Z,98205.86
2022-12-22T12:27:07.636Z,98199.41
2022-12-22T12:30:39.864Z,98199.17
2022-12-22T12:33:47.289Z,98203.60
2022-12-22T12:37:03.193Z,98195.26
2022-12-22T12:40:29.358Z,98189.66
2022-12-22T12:43:42.979Z,98181.02
2022-12-22T12:47:11.963Z,98179.86
2022-12-22T12:50:41.657Z,98183.95
2022-12-22T12:54:28.032Z,98173.69
2022-12-22T12:57:54.606Z,98175.71
2022-12-22T13:01:07.283Z,98168.92
2022-12-22T13:04:35.487Z,98167.23
2022-12-22T13:08:26.978Z,98164.80
2022-12-22T13:15:07.355Z,98162.88
2022-12-22T13:18:50.807Z,98144.30
2022-12-22T13:22:01.915Z,98151.06
2022-12-22T13:25:22.580Z,98153.22
2022-12-22T13:28:35.966Z,98148.42
2022-12-22T13:31:53.402Z,98143.02
2022-12-22T13:35:37.499Z,98134.17
2022-12-22T13:38:39.760Z,98135.83
2022-12-22T13:41:54.471Z,98149.58
2022-12-22T13:45:10.807Z,98143.73
2022-12-22T13:48:29.146Z,98158.08
2022-12-22T13:51:44.658Z,98152.61
2022-12-22T13:54:57.185Z,98150.59
2022-12-22T13:58:15.856Z,98145.05
2022-12-22T14:01:28.710Z,98132.66
2022-12-22T14:04:42.868Z,98145.95
2022-12-22T14:08:10.454Z,98143.97
2022-12-22T14:11:20.780Z,98136.48
2022-12-22T14:14:38.237Z,98139.11
2022-12-22T14:17:53.218Z,98136.13
2022-12-22T14:21:05.579Z,98136.03
2022-12-22T14:24:23.488Z,98144.28
2022-12-22T14:27:43.255Z,98142.85
2022-12-22T14:30:59.957Z,98141.68
2022-12-22T14:34:32.682Z,98134.14
2022-12-22T14:37:44.939Z,98140.73
2022-12-22T14:40:59.263Z,98142.65
2022-12-22T14:44:15.532Z,98134.89
2022-12-22T14:47:31.808Z,98129.04
2022-12-22T14:50:48.585Z,98130.70
2022-12-22T14:54:04.229Z,98137.88
2022-12-22T14:57:23.492Z,98137.16
2022-12-22T15:00:42.652Z,98132.39
2022-12-22T15:04:10.033Z,98131.06
2022-12-22T15:10:47.444Z,98129.73
2022-12-22T15:14:00.174Z,98126.97
2022-12-22T15:17:26.239Z,98122.56
2022-12-22T15:20:39.547Z,98124.08
2022-12-22T15:23:53.352Z,98120.34
2022-12-22T15:27:05.545Z,98115.06
2022-12-22T15:30:28.829Z,98108.59
2022-12-22T15:33:41.242Z,98115.57
2022-12-22T15:36:53.602Z,98108.34
2022-12-22T15:40:06.545Z,98110.84
2022-12-22T15:46:36.190Z,98105.45
2022-12-22T15:49:49.352Z,98100.02
2022-12-22T15:53:04.911Z,98093.17
2022-12-22T15:56:39.354Z,98081.09
2022-12-22T16:04:12.236Z,98077.66
2022-12-22T16:07:25.151Z,98072.28
2022-12-22T16:10:40.261Z,98068.95
2022-12-22T16:13:56.493Z,98055.20
2022-12-22T16:20:17.975Z,98057.97
2022-12-22T16:23:34.079Z,98064.36
2022-12-22T16:26:51.233Z,98055.63
2022-12-22T16:30:03.922Z,98061.31
2022-12-22T16:33:18.717Z,98067.85
2022-12-22T16:36:30.906Z,98066.54
2022-12-22T16:39:43.189Z,98068.03
2022-12-22T16:46:34.154Z,98053.77
2022-12-22T16:49:46.453Z,98061.73
2022-12-22T16:52:58.571Z,98051.30
2022-12-22T16:56:13.479Z,98054.91
2022-12-22T16:59:25.744Z,98047.38
2022-12-22T17:02:40.585Z,98059.59
2022-12-22T17:05:56.102Z,98058.77
2022-12-22T17:09:11.150Z,98067.39
2022-12-22T17:12:28.509Z,98061.35
2022-12-22T17:15:41.277Z,98062.84
2022-12-22T17:18:53.874Z,98057.25
2022-12-22T17:22:06.926Z,98057.41
2022-12-22T17:25:26.323Z,98059.52
2022-12-22T17:28:42.355Z,98062.84
2022-12-22T17:31:56.920Z,98057.56
2022-12-22T17:35:10.262Z,98063.69
2022-12-22T17:38:27.079Z,98058.29
2022-12-22T17:41:37.965Z,98051.63
2022-12-22T17:44:51.672Z,98051.50
2022-12-22T17:48:04.269Z,98058.47
2022-12-22T17:51:24.915Z,98052.22
2022-12-22T17:54:37.873Z,98054.05
2022-12-22T17:57:52.059Z,98048.77
2022-12-22T18:01:04.493Z,98045.13
2022-12-22T18:04:16.762Z,98047.89
2022-12-22T18:07:30.877Z,98051.11
2022-12-22T18:10:45.881Z,98040.53
2022-12-22T18:13:59.252Z,98048.77
2022-12-22T18:17:13.124Z,98041.52
2022-12-22T18:20:28.694Z,98044.31
2022-12-22T18:23:49.563Z,98033.17
2022-12-22T18:26:57.638Z,98030.53
2022-12-22T18:30:21.632Z,98036.63
2022-12-22T18:33:33.831Z,98025.88
2022-12-22T18:36:47.744Z,98021.43
2022-12-22T18:40:00.011Z,98020.05
2022-12-22T18:43:17.964Z,98018.41
2022-12-22T18:46:31.887Z,98009.48
2022-12-22T18:49:44.402Z,98008.94
2022-12-22T18:52:58.419Z,98012.28
2022-12-22T18:56:13.342Z,98016.19
2022-12-22T18:59:33.628Z,98017.86
2022-12-22T19:02:46.033Z,98013.39
2022-12-22T19:05:58.603Z,97996.99
2022-12-22T19:09:15.052Z,98010.90
2022-12-22T19:12:28.824Z,98003.39
2022-12-22T19:15:43.943Z,98002.58
2022-12-22T19:18:57.961Z,98007.17
2022-12-22T19:22:10.286Z,98015.80
2022-12-22T19:25:25.268Z,98020.09
2022-12-22T19:28:41.118Z,98014.80
2022-12-22T19:31:53.744Z,98018.44
2022-12-22T19:35:06.218Z,98020.39
2022-12-22T19:38:28.180Z,98015.38
2022-12-22T19:41:49.921Z,98017.17
2022-12-22T19:45:08.496Z,98012.04
2022-12-22T19:48:24.775Z,98009.40
2022-12-22T19:51:38.702Z,98017.33
2022-12-22T19:54:52.275Z,98021.50
2022-12-22T19:58:07.664Z,98018.13
2022-12-22T20:01:21.717Z,98014.80
2022-12-22T20:04:37.747Z,98024.80
2022-12-22T20:07:51.506Z,98024.27
2022-12-22T20:11:05.965Z,98029.70
2022-12-22T20:14:22.271Z,98022.04
2022-12-22T20:17:36.966Z,98013.54
2022-12-22T20:20:57.552Z,98018.70
2022-12-22T20:24:15.549Z,98011.89
2022-12-22T20:27:35.319Z,98004.53
2022-12-22T20:30:49.557Z,98010.36
2022-12-22T20:34:02.518Z,98005.91
2022-12-22T20:37:21.729Z,98010.39
2022-12-22T20:40:37.049Z,98003.42
2022-12-22T20:43:49.500Z,98003.57
2022-12-22T20:47:01.516Z,98005.38
2022-12-22T20:50:25.861Z,98013.72
2022-12-22T20:53:38.494Z,98015.94
2022-12-22T20:56:51.655Z,98018.59
2022-12-22T21:00:04.416Z,98009.01
2022-12-22T21:03:17.758Z,98011.23
2022-12-22T21:06:36.681Z,98014.17
2022-12-22T21:09:49.916Z,98012.34
2022-12-22T21:13:04.648Z,98006.52
2022-12-22T21:16:26.461Z,98002.48
2022-12-22T21:19:38.679Z,98010.86
2022-12-22T21:22:51.007Z,98007.38
2022-12-22T21:26:04.565Z,98002.78
2022-12-22T21:29:24.274Z,98001.53
2022-12-22T21:32:36.470Z,97991.95
2022-12-22T21:35:48.813Z,97993.74
2022-12-22T21:39:03.797Z,97993.48
2022-12-22T21:42:20.284Z,97995.14
2022-12-22T21:45:41.007Z,97988.22
2022-12-22T21:48:50.813Z,97994.87
2022-12-22T21:52:03.750Z,97992.23
2022-12-22T21:55:17.373Z,97992.67
2022-12-22T21:58:30.285Z,97998.91
2022-12-22T22:01:45.289Z,97993.48
2022-12-22T22:04:58.219Z,97986.55
2022-12-22T22:08:14.137Z,97993.48
2022-12-22T22:11:30.300Z,97981.27
2022-12-22T22:14:44.908Z,97982.13
2022-12-22T22:18:02.986Z,97993.36
2022-12-22T22:21:18.410Z,97999.08
2022-12-22T22:24:30.905Z,97994.35
2022-12-22T22:27:47.664Z,98001.58
2022-12-22T22:30:59.557Z,97996.56
2022-12-22T22:34:12.516Z,98006.56
2022-12-22T22:37:24.632Z,98001.14
2022-12-22T22:40:36.825Z,98003.38
2022-12-22T22:43:48.849Z,98009.34
2022-12-22T22:47:01.068Z,98004.62
2022-12-22T22:50:15.572Z,98007.11
2022-12-22T22:53:27.656Z,97996.58
2022-12-22T22:56:39.947Z,97986.01
2022-12-22T22:59:54.798Z,97985.56
2022-12-22T23:03:07.975Z,97987.25
2022-12-22T23:06:20.917Z,97994.17
2022-12-22T23:09:32.964Z,97992.23
2022-12-22T23:12:44.988Z,97995.14
2022-12-22T23:16:04.235Z,97991.67
2022-12-22T23:19:16.394Z,97989.45
2022-12-22T23:22:28.546Z,97986.52
2022-12-22T23:25:40.702Z,97983.18
2022-12-22T23:28:59.240Z,97991.80
2022-12-22T23:32:09.782Z,97995.13
2022-12-22T23:35:21.980Z,97995.13
2022-12-22T23:38:34.034Z,97999.45
2022-12-22T23:41:46.016Z,97994.44
2022-12-22T23:44:58.176Z,98002.36
2022-12-22T23:48:10.702Z,98003.77
2022-12-22T23:51:22.834Z,98002.52
2022-12-22T23:54:34.903Z,97998.20
2022-12-22T23:57:46.904Z,97999.61
